sensor_id;sensor_type;location;lat;lon;timestamp;pressure;altitude;pressure_sealevel;temperature
85096;BMP280;75436;53.502;10.030;2024-02-15T00:00:15;100535.34;;;11.53
85096;BMP280;75436;53.502;10.030;2024-02-15T00:02:43;100528.91;;;11.62
85096;BMP280;75436;53.502;10.030;2024-02-15T00:05:13;100523.75;;;11.66
85096;BMP280;75436;53.502;10.030;2024-02-15T00:07:46;100527.16;;;11.66
85096;BMP280;75436;53.502;10.030;2024-02-15T00:10:14;100530.41;;;11.63
85096;BMP280;75436;53.502;10.030;2024-02-15T00:12:39;100535.53;;;11.68
85096;BMP280;75436;53.502;10.030;2024-02-15T00:15:05;100535.69;;;11.63
85096;BMP280;75436;53.502;10.030;2024-02-15T00:17:31;100541.41;;;11.65
85096;BMP280;75436;53.502;10.030;2024-02-15T00:19:57;100541.44;;;11.77
85096;BMP280;75436;53.502;10.030;2024-02-15T00:22:22;100538.22;;;11.72
85096;BMP280;75436;53.502;10.030;2024-02-15T00:24:49;100534.97;;;11.75
85096;BMP280;75436;53.502;10.030;2024-02-15T00:27:17;100537.69;;;11.78
85096;BMP280;75436;53.502;10.030;2024-02-15T00:29:42;100535.81;;;11.79
85096;BMP280;75436;53.502;10.030;2024-02-15T00:32:09;100530.59;;;11.90
85096;BMP280;75436;53.502;10.030;2024-02-15T00:34:38;100543.97;;;11.86
85096;BMP280;75436;53.502;10.030;2024-02-15T00:37:04;100538.25;;;11.84
85096;BMP280;75436;53.502;10.030;2024-02-15T00:39:32;100541.53;;;11.81
85096;BMP280;75436;53.502;10.030;2024-02-15T00:41:59;100540.34;;;11.90
85096;BMP280;75436;53.502;10.030;2024-02-15T00:44:28;100547.25;;;11.83
85096;BMP280;75436;53.502;10.030;2024-02-15T00:46:53;100547.25;;;11.83
85096;BMP280;75436;53.502;10.030;2024-02-15T00:49:19;100543.97;;;11.86
85096;BMP280;75436;53.502;10.030;2024-02-15T00:51:49;100553.09;;;11.88
85096;BMP280;75436;53.502;10.030;2024-02-15T00:54:15;100551.88;;;11.86
85096;BMP280;75436;53.502;10.030;2024-02-15T00:56:41;100553.19;;;11.91
85096;BMP280;75436;53.502;10.030;2024-02-15T00:59:07;100543.97;;;11.86
85096;BMP280;75436;53.502;10.030;2024-02-15T01:01:32;100549.34;;;11.89
85096;BMP280;75436;53.502;10.030;2024-02-15T01:03:58;100554.28;;;11.90
85096;BMP280;75436;53.502;10.030;2024-02-15T01:06:24;100551.00;;;11.93
85096;BMP280;75436;53.502;10.030;2024-02-15T01:08:49;100548.06;;;11.95
85096;BMP280;75436;53.502;10.030;2024-02-15T01:11:15;100557.13;;;11.97
85096;BMP280;75436;53.502;10.030;2024-02-15T01:13:41;100542.13;;;11.98
85096;BMP280;75436;53.502;10.030;2024-02-15T01:16:09;100558.56;;;11.95
85096;BMP280;75436;53.502;10.030;2024-02-15T01:18:35;100554.94;;;11.99
85096;BMP280;75436;53.502;10.030;2024-02-15T01:21:02;100552.88;;;12.05
85096;BMP280;75436;53.502;10.030;2024-02-15T01:23:28;100560.47;;;12.06
85096;BMP280;75436;53.502;10.030;2024-02-15T01:25:55;100558.03;;;12.01
85096;BMP280;75436;53.502;10.030;2024-02-15T01:28:21;100561.78;;;12.00
85096;BMP280;75436;53.502;10.030;2024-02-15T01:30:53;100562.31;;;11.94
85096;BMP280;75436;53.502;10.030;2024-02-15T01:33:19;100551.00;;;11.93
85096;BMP280;75436;53.502;10.030;2024-02-15T01:35:45;100558.88;;;11.93
85096;BMP280;75436;53.502;10.030;2024-02-15T01:38:10;100553.97;;;11.92
85096;BMP280;75436;53.502;10.030;2024-02-15T01:40:37;100556.50;;;12.00
85096;BMP280;75436;53.502;10.030;2024-02-15T01:43:06;100551.25;;;12.00
85096;BMP280;75436;53.502;10.030;2024-02-15T01:45:32;100557.38;;;12.04
85096;BMP280;75436;53.502;10.030;2024-02-15T01:47:58;100558.69;;;11.98
85096;BMP280;75436;53.502;10.030;2024-02-15T01:50:24;100572.16;;;11.97
85096;BMP280;75436;53.502;10.030;2024-02-15T01:52:53;100565.03;;;11.97
85096;BMP280;75436;53.502;10.030;2024-02-15T01:55:22;100567.56;;;11.94
85096;BMP280;75436;53.502;10.030;2024-02-15T01:57:49;100564.19;;;12.05
85096;BMP280;75436;53.502;10.030;2024-02-15T02:00:18;100566.28;;;12.00
85096;BMP280;75436;53.502;10.030;2024-02-15T02:02:45;100563.94;;;11.98
85096;BMP280;75436;53.502;10.030;2024-02-15T02:05:11;100564.84;;;12.02
85096;BMP280;75436;53.502;10.030;2024-02-15T02:07:37;100556.50;;;12.00
85096;BMP280;75436;53.502;10.030;2024-02-15T02:10:03;100568.56;;;12.01
85096;BMP280;75436;53.502;10.030;2024-02-15T02:12:31;100566.69;;;12.02
85096;BMP280;75436;53.502;10.030;2024-02-15T02:14:57;100566.28;;;12.00
85096;BMP280;75436;53.502;10.030;2024-02-15T02:17:22;100566.13;;;11.96
85096;BMP280;75436;53.502;10.030;2024-02-15T02:19:49;100562.41;;;11.97
85096;BMP280;75436;53.502;10.030;2024-02-15T02:22:17;100559.66;;;12.06
85096;BMP280;75436;53.502;10.030;2024-02-15T02:24:57;100561.44;;;12.02
85096;BMP280;75436;53.502;10.030;2024-02-15T02:27:29;100571.63;;;12.03
85096;BMP280;75436;53.502;10.030;2024-02-15T02:29:57;100566.34;;;12.03
85096;BMP280;75436;53.502;10.030;2024-02-15T02:32:24;100564.72;;;11.99
85096;BMP280;75436;53.502;10.030;2024-02-15T02:34:51;100567.91;;;12.04
85096;BMP280;75436;53.502;10.030;2024-02-15T02:37:18;100569.75;;;12.04
85096;BMP280;75436;53.502;10.030;2024-02-15T02:39:45;100573.16;;;12.04
85096;BMP280;75436;53.502;10.030;2024-02-15T02:42:10;100571.53;;;12.00
85096;BMP280;75436;53.502;10.030;2024-02-15T02:44:35;100571.84;;;11.98
85096;BMP280;75436;53.502;10.030;2024-02-15T02:47:01;100569.09;;;11.95
85096;BMP280;75436;53.502;10.030;2024-02-15T02:49:26;100564.72;;;11.99
85096;BMP280;75436;53.502;10.030;2024-02-15T02:51:54;100568.34;;;11.94
85096;BMP280;75436;53.502;10.030;2024-02-15T02:54:19;100561.00;;;12.00
85096;BMP280;75436;53.502;10.030;2024-02-15T02:56:45;100556.50;;;12.00
85096;BMP280;75436;53.502;10.030;2024-02-15T02:59:10;100553.41;;;11.98
85096;BMP280;75436;53.502;10.030;2024-02-15T03:01:36;100552.53;;;11.94
85096;BMP280;75436;53.502;10.030;2024-02-15T03:04:02;100557.81;;;11.94
85096;BMP280;75436;53.502;10.030;2024-02-15T03:06:27;100548.47;;;11.97
85096;BMP280;75436;53.502;10.030;2024-02-15T03:08:53;100554.63;;;12.01
85096;BMP280;75436;53.502;10.030;2024-02-15T03:11:20;100552.78;;;12.01
85096;BMP280;75436;53.502;10.030;2024-02-15T03:13:46;100560.47;;;12.06
85096;BMP280;75436;53.502;10.030;2024-02-15T03:16:15;100566.16;;;12.08
85096;BMP280;75436;53.502;10.030;2024-02-15T03:18:41;100562.00;;;12.07
85096;BMP280;75436;53.502;10.030;2024-02-15T03:21:09;100566.56;;;12.10
85096;BMP280;75436;53.502;10.030;2024-02-15T03:23:38;100566.50;;;12.07
85096;BMP280;75436;53.502;10.030;2024-02-15T03:26:04;100571.00;;;12.06
85096;BMP280;75436;53.502;10.030;2024-02-15T03:28:30;100574.25;;;12.03
85096;BMP280;75436;53.502;10.030;2024-02-15T03:30:56;100576.81;;;12.00
85096;BMP280;75436;53.502;10.030;2024-02-15T03:33:22;100575.81;;;12.04
85096;BMP280;75436;53.502;10.030;2024-02-15T03:35:51;100580.41;;;11.95
85096;BMP280;75436;53.502;10.030;2024-02-15T03:38:19;100578.78;;;12.03
85096;BMP280;75436;53.502;10.030;2024-02-15T03:40:44;100579.19;;;12.05
85096;BMP280;75436;53.502;10.030;2024-02-15T03:43:10;100578.91;;;12.06
85096;BMP280;75436;53.502;10.030;2024-02-15T03:45:35;100577.66;;;12.04
85096;BMP280;75436;53.502;10.030;2024-02-15T03:48:00;100576.88;;;12.03
85096;BMP280;75436;53.502;10.030;2024-02-15T03:50:29;100582.16;;;12.03
85096;BMP280;75436;53.502;10.030;2024-02-15T03:52:58;100591.78;;;11.99
85096;BMP280;75436;53.502;10.030;2024-02-15T03:55:24;100584.69;;;12.12
85096;BMP280;75436;53.502;10.030;2024-02-15T03:57:50;100580.41;;;12.07
85096;BMP280;75436;53.502;10.030;2024-02-15T04:00:16;100581.53;;;12.06
85096;BMP280;75436;53.502;10.030;2024-02-15T04:02:47;100580.66;;;12.02
85096;BMP280;75436;53.502;10.030;2024-02-15T04:05:16;100586.69;;;12.03
85096;BMP280;75436;53.502;10.030;2024-02-15T04:07:44;100588.53;;;12.02
85096;BMP280;75436;53.502;10.030;2024-02-15T04:10:10;100587.63;;;11.98
85096;BMP280;75436;53.502;10.030;2024-02-15T04:12:36;100591.78;;;11.99
85096;BMP280;75436;53.502;10.030;2024-02-15T04:15:02;100579.31;;;12.08
85096;BMP280;75436;53.502;10.030;2024-02-15T04:17:38;100588.16;;;12.04
85096;BMP280;75436;53.502;10.030;2024-02-15T04:20:04;100579.97;;;12.05
85096;BMP280;75436;53.502;10.030;2024-02-15T04:22:33;100584.34;;;12.01
85096;BMP280;75436;53.502;10.030;2024-02-15T04:25:05;100588.00;;;12.09
85096;BMP280;75436;53.502;10.030;2024-02-15T04:27:33;100585.69;;;12.07
85096;BMP280;75436;53.502;10.030;2024-02-15T04:30:05;100595.66;;;12.14
85096;BMP280;75436;53.502;10.030;2024-02-15T04:32:32;100596.97;;;12.08
85096;BMP280;75436;53.502;10.030;2024-02-15T04:35:00;100599.84;;;12.03
85096;BMP280;75436;53.502;10.030;2024-02-15T04:37:26;100604.88;;;12.08
85096;BMP280;75436;53.502;10.030;2024-02-15T04:39:55;100604.88;;;12.08
85096;BMP280;75436;53.502;10.030;2024-02-15T04:42:25;100611.56;;;12.17
85096;BMP280;75436;53.502;10.030;2024-02-15T04:44:51;100611.78;;;12.12
85096;BMP280;75436;53.502;10.030;2024-02-15T04:47:18;100605.63;;;12.08
85096;BMP280;75436;53.502;10.030;2024-02-15T04:49:45;100612.88;;;12.11
85096;BMP280;75436;53.502;10.030;2024-02-15T04:52:10;100614.50;;;12.04
85096;BMP280;75436;53.502;10.030;2024-02-15T04:54:37;100630.66;;;12.02
85096;BMP280;75436;53.502;10.030;2024-02-15T04:57:04;100632.84;;;12.00
85096;BMP280;75436;53.502;10.030;2024-02-15T04:59:31;100625.56;;;11.97
85096;BMP280;75436;53.502;10.030;2024-02-15T05:01:58;100625.81;;;12.04
85096;BMP280;75436;53.502;10.030;2024-02-15T05:04:23;100628.03;;;12.02
85096;BMP280;75436;53.502;10.030;2024-02-15T05:06:50;100631.53;;;12.06
85096;BMP280;75436;53.502;10.030;2024-02-15T05:09:16;100622.66;;;12.11
85096;BMP280;75436;53.502;10.030;2024-02-15T05:11:43;100625.63;;;12.09
85096;BMP280;75436;53.502;10.030;2024-02-15T05:14:13;100635.00;;;12.10
85096;BMP280;75436;53.502;10.030;2024-02-15T05:16:45;100626.50;;;12.13
85096;BMP280;75436;53.502;10.030;2024-02-15T05:19:14;100620.38;;;12.21
85096;BMP280;75436;53.502;10.030;2024-02-15T05:21:45;100614.41;;;12.12
85096;BMP280;75436;53.502;10.030;2024-02-15T05:24:15;100614.31;;;12.09
85096;BMP280;75436;53.502;10.030;2024-02-15T05:26:44;100623.63;;;12.06
85096;BMP280;75436;53.502;10.030;2024-02-15T05:29:14;100623.94;;;12.05
85096;BMP280;75436;53.502;10.030;2024-02-15T05:31:40;100621.00;;;12.06
85096;BMP280;75436;53.502;10.030;2024-02-15T05:34:07;100616.06;;;12.05
85096;BMP280;75436;53.502;10.030;2024-02-15T05:36:34;100608.28;;;12.08
85096;BMP280;75436;53.502;10.030;2024-02-15T05:39:00;100608.28;;;12.08
85096;BMP280;75436;53.502;10.030;2024-02-15T05:41:25;100612.47;;;12.09
85096;BMP280;75436;53.502;10.030;2024-02-15T05:43:52;100605.28;;;12.10
85096;BMP280;75436;53.502;10.030;2024-02-15T05:46:19;100600.38;;;12.08
85096;BMP280;75436;53.502;10.030;2024-02-15T05:48:46;100611.09;;;12.03
85096;BMP280;75436;53.502;10.030;2024-02-15T05:51:12;100602.78;;;12.01
85096;BMP280;75436;53.502;10.030;2024-02-15T05:53:37;100596.66;;;12.09
85096;BMP280;75436;53.502;10.030;2024-02-15T05:56:05;100603.00;;;12.08
85096;BMP280;75436;53.502;10.030;2024-02-15T05:58:36;100609.06;;;12.09
85096;BMP280;75436;53.502;10.030;2024-02-15T06:01:03;100612.31;;;12.06
85096;BMP280;75436;53.502;10.030;2024-02-15T06:03:34;100613.97;;;12.10
85096;BMP280;75436;53.502;10.030;2024-02-15T06:06:03;100605.84;;;12.03
85096;BMP280;75436;53.502;10.030;2024-02-15T06:08:34;100619.22;;;11.98
85096;BMP280;75436;53.502;10.030;2024-02-15T06:11:00;100614.06;;;12.02
85096;BMP280;75436;53.502;10.030;2024-02-15T06:13:27;100618.56;;;12.01
85096;BMP280;75436;53.502;10.030;2024-02-15T06:15:53;100621.22;;;12.01
85096;BMP280;75436;53.502;10.030;2024-02-15T06:18:24;100630.97;;;12.01
85096;BMP280;75436;53.502;10.030;2024-02-15T06:20:52;100632.84;;;12.00
85096;BMP280;75436;53.502;10.030;2024-02-15T06:23:19;100629.53;;;12.03
85096;BMP280;75436;53.502;10.030;2024-02-15T06:25:52;100622.75;;;12.02
85096;BMP280;75436;53.502;10.030;2024-02-15T06:28:19;100615.63;;;12.03
85096;BMP280;75436;53.502;10.030;2024-02-15T06:31:09;100624.78;;;11.97
85096;BMP280;75436;53.502;10.030;2024-02-15T06:33:56;100617.13;;;12.04
85096;BMP280;75436;53.502;10.030;2024-02-15T06:39:33;100618.81;;;12.08
85096;BMP280;75436;53.502;10.030;2024-02-15T06:42:12;100620.00;;;12.11
85096;BMP280;75436;53.502;10.030;2024-02-15T06:44:44;100628.91;;;12.06
85096;BMP280;75436;53.502;10.030;2024-02-15T06:47:10;100632.16;;;12.03
85096;BMP280;75436;53.502;10.030;2024-02-15T06:49:37;100614.88;;;12.14
85096;BMP280;75436;53.502;10.030;2024-02-15T06:52:10;100613.97;;;12.10
85096;BMP280;75436;53.502;10.030;2024-02-15T06:54:39;100609.50;;;12.11
85096;BMP280;75436;53.502;10.030;2024-02-15T06:57:05;100614.63;;;12.07
85096;BMP280;75436;53.502;10.030;2024-02-15T06:59:31;100617.72;;;12.09
85096;BMP280;75436;53.502;10.030;2024-02-15T07:01:58;100621.16;;;12.21
85096;BMP280;75436;53.502;10.030;2024-02-15T07:04:25;100618.06;;;12.19
85096;BMP280;75436;53.502;10.030;2024-02-15T07:06:52;100616.66;;;12.22
85096;BMP280;75436;53.502;10.030;2024-02-15T07:09:22;100610.06;;;12.28
85096;BMP280;75436;53.502;10.030;2024-02-15T07:11:50;100618.94;;;12.23
85096;BMP280;75436;53.502;10.030;2024-02-15T07:14:16;100631.53;;;12.18
85096;BMP280;75436;53.502;10.030;2024-02-15T07:16:49;100622.56;;;12.19
85096;BMP280;75436;53.502;10.030;2024-02-15T07:19:16;100622.22;;;12.20
85096;BMP280;75436;53.502;10.030;2024-02-15T07:21:42;100628.91;;;12.18
85096;BMP280;75436;53.502;10.030;2024-02-15T07:24:08;100620.47;;;12.24
85096;BMP280;75436;53.502;10.030;2024-02-15T07:26:38;100625.72;;;12.24
85096;BMP280;75436;53.502;10.030;2024-02-15T07:29:04;100620.59;;;12.28
85096;BMP280;75436;53.502;10.030;2024-02-15T07:31:33;100623.66;;;12.30
85096;BMP280;75436;53.502;10.030;2024-02-15T07:33:59;100622.94;;;12.29
85096;BMP280;75436;53.502;10.030;2024-02-15T07:36:26;100617.88;;;12.36
85096;BMP280;75436;53.502;10.030;2024-02-15T07:38:54;100615.75;;;12.30
85096;BMP280;75436;53.502;10.030;2024-02-15T07:41:23;100620.06;;;12.34
85096;BMP280;75436;53.502;10.030;2024-02-15T07:43:51;100620.13;;;12.38
85096;BMP280;75436;53.502;10.030;2024-02-15T07:46:22;100633.84;;;12.31
85096;BMP280;75436;53.502;10.030;2024-02-15T07:48:49;100632.91;;;12.36
85096;BMP280;75436;53.502;10.030;2024-02-15T07:51:16;100626.50;;;12.37
85096;BMP280;75436;53.502;10.030;2024-02-15T07:53:45;100630.69;;;12.38
85096;BMP280;75436;53.502;10.030;2024-02-15T07:56:12;100619.31;;;12.34
85096;BMP280;75436;53.502;10.030;2024-02-15T07:58:43;100619.31;;;12.34
85096;BMP280;75436;53.502;10.030;2024-02-15T08:01:13;100627.50;;;12.32
85096;BMP280;75436;53.502;10.030;2024-02-15T08:03:40;100616.66;;;12.34
85096;BMP280;75436;53.502;10.030;2024-02-15T08:06:11;100629.16;;;12.37
85096;BMP280;75436;53.502;10.030;2024-02-15T08:08:38;100632.13;;;12.35
85096;BMP280;75436;53.502;10.030;2024-02-15T08:11:06;100634.66;;;12.32
85096;BMP280;75436;53.502;10.030;2024-02-15T08:13:44;100636.84;;;12.30
85096;BMP280;75436;53.502;10.030;2024-02-15T08:16:11;100641.75;;;12.31
85096;BMP280;75436;53.502;10.030;2024-02-15T08:18:38;100637.94;;;12.29
85096;BMP280;75436;53.502;10.030;2024-02-15T08:21:05;100637.72;;;12.34
85096;BMP280;75436;53.502;10.030;2024-02-15T08:23:31;100643.09;;;12.37
85096;BMP280;75436;53.502;10.030;2024-02-15T08:25:57;100639.03;;;12.40
85096;BMP280;75436;53.502;10.030;2024-02-15T08:28:24;100634.31;;;12.33
85096;BMP280;75436;53.502;10.030;2024-02-15T08:30:52;100635.09;;;12.34
85096;BMP280;75436;53.502;10.030;2024-02-15T08:33:19;100628.50;;;12.40
85096;BMP280;75436;53.502;10.030;2024-02-15T08:35:46;100638.25;;;12.39
85096;BMP280;75436;53.502;10.030;2024-02-15T08:38:12;100635.63;;;12.39
85096;BMP280;75436;53.502;10.030;2024-02-15T08:40:38;100624.91;;;12.44
85096;BMP280;75436;53.502;10.030;2024-02-15T08:43:04;100622.38;;;12.47
85096;BMP280;75436;53.502;10.030;2024-02-15T08:45:29;100624.56;;;12.57
85096;BMP280;75436;53.502;10.030;2024-02-15T08:47:55;100617.31;;;12.66
85096;BMP280;75436;53.502;10.030;2024-02-15T08:50:20;100615.78;;;12.65
85096;BMP280;75436;53.502;10.030;2024-02-15T08:52:48;100614.22;;;12.64
85096;BMP280;75436;53.502;10.030;2024-02-15T08:55:15;100607.53;;;12.67
85096;BMP280;75436;53.502;10.030;2024-02-15T08:57:42;100609.72;;;12.65
85096;BMP280;75436;53.502;10.030;2024-02-15T09:00:10;100603.84;;;12.68
85096;BMP280;75436;53.502;10.030;2024-02-15T09:02:44;100612.72;;;12.63
85096;BMP280;75436;53.502;10.030;2024-02-15T09:05:11;100601.50;;;12.66
85096;BMP280;75436;53.502;10.030;2024-02-15T09:07:46;100609.09;;;12.68
85096;BMP280;75436;53.502;10.030;2024-02-15T09:10:13;100610.63;;;12.69
85096;BMP280;75436;53.502;10.030;2024-02-15T09:12:43;100611.38;;;12.69
85096;BMP280;75436;53.502;10.030;2024-02-15T09:15:12;100604.47;;;12.76
85096;BMP280;75436;53.502;10.030;2024-02-15T09:17:37;100608.31;;;12.79
85096;BMP280;75436;53.502;10.030;2024-02-15T09:20:16;100610.94;;;12.79
85096;BMP280;75436;53.502;10.030;2024-02-15T09:22:52;100605.88;;;12.86
85096;BMP280;75436;53.502;10.030;2024-02-15T09:25:20;100598.06;;;12.89
85096;BMP280;75436;53.502;10.030;2024-02-15T09:27:50;100606.75;;;12.90
85096;BMP280;75436;53.502;10.030;2024-02-15T09:30:17;100603.66;;;12.88
85096;BMP280;75436;53.502;10.030;2024-02-15T09:32:43;100603.03;;;12.91
85096;BMP280;75436;53.502;10.030;2024-02-15T09:35:11;100608.75;;;12.93
85096;BMP280;75436;53.502;10.030;2024-02-15T09:37:43;100603.09;;;12.94
85096;BMP280;75436;53.502;10.030;2024-02-15T09:40:11;100602.56;;;12.89
85096;BMP280;75436;53.502;10.030;2024-02-15T09:42:38;100604.78;;;12.87
85096;BMP280;75436;53.502;10.030;2024-02-15T09:45:08;100604.44;;;12.88
85096;BMP280;75436;53.502;10.030;2024-02-15T09:47:41;100601.47;;;12.90
85096;BMP280;75436;53.502;10.030;2024-02-15T09:50:09;100609.06;;;12.91
85096;BMP280;75436;53.502;10.030;2024-02-15T09:52:51;100613.56;;;12.91
85096;BMP280;75436;53.502;10.030;2024-02-15T09:55:20;100609.16;;;12.95
85096;BMP280;75436;53.502;10.030;2024-02-15T09:57:48;100613.31;;;12.96
85096;BMP280;75436;53.502;10.030;2024-02-15T10:00:17;100606.75;;;12.90
85096;BMP280;75436;53.502;10.030;2024-02-15T10:02:44;100603.47;;;12.93
85096;BMP280;75436;53.502;10.030;2024-02-15T10:05:14;100601.81;;;12.88
85096;BMP280;75436;53.502;10.030;2024-02-15T10:07:41;100610.47;;;12.89
85096;BMP280;75436;53.502;10.030;2024-02-15T10:10:25;100611.38;;;12.93
85096;BMP280;75436;53.502;10.030;2024-02-15T10:12:53;100610.38;;;12.97
85096;BMP280;75436;53.502;10.030;2024-02-15T10:15:36;100614.44;;;12.95
85096;BMP280;75436;53.502;10.030;2024-02-15T10:18:09;100610.88;;;13.02
85096;BMP280;75436;53.502;10.030;2024-02-15T10:20:38;100609.34;;;13.02
85096;BMP280;75436;53.502;10.030;2024-02-15T10:23:14;100610.25;;;13.05
85096;BMP280;75436;53.502;10.030;2024-02-15T10:25:43;100612.31;;;13.12
85096;BMP280;75436;53.502;10.030;2024-02-15T10:28:11;100605.19;;;13.12
85096;BMP280;75436;53.502;10.030;2024-02-15T10:30:42;100612.97;;;13.09
85096;BMP280;75436;53.502;10.030;2024-02-15T10:33:09;100600.63;;;13.13
85096;BMP280;75436;53.502;10.030;2024-02-15T10:35:35;100597.09;;;13.21
85096;BMP280;75436;53.502;10.030;2024-02-15T10:38:25;100593.03;;;13.23
85096;BMP280;75436;53.502;10.030;2024-02-15T10:41:03;100583.53;;;13.34
85096;BMP280;75436;53.502;10.030;2024-02-15T10:43:36;100583.22;;;13.35
85096;BMP280;75436;53.502;10.030;2024-02-15T10:46:05;100584.47;;;13.26
85096;BMP280;75436;53.502;10.030;2024-02-15T10:48:36;100579.38;;;13.33
85096;BMP280;75436;53.502;10.030;2024-02-15T10:51:03;100580.25;;;13.37
85096;BMP280;75436;53.502;10.030;2024-02-15T10:53:35;100570.56;;;13.41
85096;BMP280;75436;53.502;10.030;2024-02-15T10:56:18;100561.00;;;13.36
85096;BMP280;75436;53.502;10.030;2024-02-15T10:58:50;100575.19;;;13.32
85096;BMP280;75436;53.502;10.030;2024-02-15T11:01:18;100570.28;;;13.31
85096;BMP280;75436;53.502;10.030;2024-02-15T11:03:51;100564.00;;;13.35
85096;BMP280;75436;53.502;10.030;2024-02-15T11:06:20;100571.78;;;13.31
85096;BMP280;75436;53.502;10.030;2024-02-15T11:08:49;100568.06;;;13.32
85096;BMP280;75436;53.502;10.030;2024-02-15T11:11:15;100566.50;;;13.31
85096;BMP280;75436;53.502;10.030;2024-02-15T11:13:40;100559.75;;;13.31
85096;BMP280;75436;53.502;10.030;2024-02-15T11:16:07;100550.59;;;13.28
85096;BMP280;75436;53.502;10.030;2024-02-15T11:18:44;100553.75;;;13.33
85096;BMP280;75436;53.502;10.030;2024-02-15T11:21:14;100560.94;;;13.21
85096;BMP280;75436;53.502;10.030;2024-02-15T11:23:44;100559.94;;;13.26
85096;BMP280;75436;53.502;10.030;2024-02-15T11:26:44;100551.69;;;13.27
85096;BMP280;75436;53.502;10.030;2024-02-15T11:29:50;100547.44;;;13.23
85096;BMP280;75436;53.502;10.030;2024-02-15T11:35:12;100557.13;;;13.07
85096;BMP280;75436;53.502;10.030;2024-02-15T11:37:50;100562.34;;;13.03
85096;BMP280;75436;53.502;10.030;2024-02-15T11:43:06;100561.72;;;12.95
85096;BMP280;75436;53.502;10.030;2024-02-15T11:45:33;100557.75;;;12.89
85096;BMP280;75436;53.502;10.030;2024-02-15T11:48:02;100553.25;;;12.89
85096;BMP280;75436;53.502;10.030;2024-02-15T11:50:34;100561.47;;;12.88
85096;BMP280;75436;53.502;10.030;2024-02-15T11:53:12;100557.88;;;12.92
85096;BMP280;75436;53.502;10.030;2024-02-15T11:55:40;100553.38;;;12.93
85096;BMP280;75436;53.502;10.030;2024-02-15T11:58:08;100545.66;;;12.88
85096;BMP280;75436;53.502;10.030;2024-02-15T12:00:34;100545.66;;;12.88
85096;BMP280;75436;53.502;10.030;2024-02-15T12:03:20;100550.06;;;12.84
85096;BMP280;75436;53.502;10.030;2024-02-15T12:06:05;100547.69;;;12.79
85096;BMP280;75436;53.502;10.030;2024-02-15T12:08:54;100543.41;;;12.86
85096;BMP280;75436;53.502;10.030;2024-02-15T12:11:39;100542.16;;;12.84
85096;BMP280;75436;53.502;10.030;2024-02-15T12:14:25;100535.63;;;12.78
85096;BMP280;75436;53.502;10.030;2024-02-15T12:17:11;100539.34;;;12.77
85096;BMP280;75436;53.502;10.030;2024-02-15T12:20:00;100536.84;;;12.80
85096;BMP280;75436;53.502;10.030;2024-02-15T12:22:36;100532.75;;;12.83
85096;BMP280;75436;53.502;10.030;2024-02-15T12:25:07;100529.69;;;12.81
85096;BMP280;75436;53.502;10.030;2024-02-15T12:27:43;100526.69;;;12.82
85096;BMP280;75436;53.502;10.030;2024-02-15T12:30:13;100515.59;;;12.89
85096;BMP280;75436;53.502;10.030;2024-02-15T12:32:40;100521.22;;;12.87
85096;BMP280;75436;53.502;10.030;2024-02-15T12:35:16;100522.50;;;12.81
85096;BMP280;75436;53.502;10.030;2024-02-15T12:37:47;100531.22;;;12.82
85096;BMP280;75436;53.502;10.030;2024-02-15T12:40:18;100527.38;;;12.79
85096;BMP280;75436;53.502;10.030;2024-02-15T12:42:45;100524.28;;;12.77
85096;BMP280;75436;53.502;10.030;2024-02-15T12:45:17;100520.66;;;12.82
85096;BMP280;75436;53.502;10.030;2024-02-15T12:47:47;100507.69;;;12.89
85096;BMP280;75436;53.502;10.030;2024-02-15T12:50:21;100509.91;;;12.87
85096;BMP280;75436;53.502;10.030;2024-02-15T12:52:50;100508.69;;;12.84
85096;BMP280;75436;53.502;10.030;2024-02-15T12:55:24;100506.50;;;12.86
85096;BMP280;75436;53.502;10.030;2024-02-15T12:57:54;100509.47;;;12.85
85096;BMP280;75436;53.502;10.030;2024-02-15T13:00:22;100501.31;;;12.90
85096;BMP280;75436;53.502;10.030;2024-02-15T13:02:55;100502.91;;;12.94
85096;BMP280;75436;53.502;10.030;2024-02-15T13:05:22;100504.47;;;12.95
85096;BMP280;75436;53.502;10.030;2024-02-15T13:07:52;100502.19;;;12.94
85096;BMP280;75436;53.502;10.030;2024-02-15T13:10:28;100506.81;;;12.85
85096;BMP280;75436;53.502;10.030;2024-02-15T13:12:56;100495.84;;;12.83
85096;BMP280;75436;53.502;10.030;2024-02-15T13:15:22;100493.19;;;12.83
85096;BMP280;75436;53.502;10.030;2024-02-15T13:17:53;100502.84;;;12.91
85096;BMP280;75436;53.502;10.030;2024-02-15T13:20:21;100495.41;;;12.93
85096;BMP280;75436;53.502;10.030;2024-02-15T13:22:59;100498.34;;;12.91
85096;BMP280;75436;53.502;10.030;2024-02-15T13:25:36;100495.16;;;12.86
85096;BMP280;75436;53.502;10.030;2024-02-15T13:28:05;100493.53;;;12.81
85096;BMP280;75436;53.502;10.030;2024-02-15T13:30:34;100500.44;;;12.86
85096;BMP280;75436;53.502;10.030;2024-02-15T13:33:02;100500.44;;;12.86
85096;BMP280;75436;53.502;10.030;2024-02-15T13:35:29;100498.88;;;12.97
85096;BMP280;75436;53.502;10.030;2024-02-15T13:37:56;100489.09;;;12.97
85096;BMP280;75436;53.502;10.030;2024-02-15T13:40:25;100495.28;;;12.89
85096;BMP280;75436;53.502;10.030;2024-02-15T13:42:57;100492.75;;;12.93
85096;BMP280;75436;53.502;10.030;2024-02-15T13:45:30;100505.72;;;12.86
85096;BMP280;75436;53.502;10.030;2024-02-15T13:48:03;100490.00;;;12.89
85096;BMP280;75436;53.502;10.030;2024-02-15T13:50:35;100487.03;;;12.91
85096;BMP280;75436;53.502;10.030;2024-02-15T13:53:03;100489.22;;;12.89
85096;BMP280;75436;53.502;10.030;2024-02-15T13:55:29;100485.34;;;12.98
85096;BMP280;75436;53.502;10.030;2024-02-15T13:57:55;100480.09;;;12.98
85096;BMP280;75436;53.502;10.030;2024-02-15T14:00:25;100486.47;;;12.97
85096;BMP280;75436;53.502;10.030;2024-02-15T14:03:02;100484.59;;;12.98